sensor_id;sensor_type;location;lat;lon;timestamp;pressure;altitude;pressure_sealevel;temperature;humidity
1776;BME280;885;42.626;23.200;2023-04-19T00:01:08;167638.78;;;9.16;100.00
1776;BME280;885;42.626;23.200;2023-04-19T00:03:35;167642.94;;;9.17;100.00
1776;BME280;885;42.626;23.200;2023-04-19T00:06:02;167645.69;;;9.18;100.00
1776;BME280;885;42.626;23.200;2023-04-19T00:08:30;167641.56;;;9.17;100.00
1776;BME280;885;42.626;23.200;2023-04-19T00:10:57;167625.03;;;9.11;100.00
1776;BME280;885;42.626;23.200;2023-04-19T00:13:23;167620.84;;;9.09;100.00
1776;BME280;885;42.626;23.200;2023-04-19T00:15:50;167620.84;;;9.09;100.00
1776;BME280;885;42.626;23.200;2023-04-19T00:18:17;167623.63;;;9.10;100.00
1776;BME280;885;42.626;23.200;2023-04-19T00:20:44;167629.16;;;9.12;100.00
1776;BME280;885;42.626;23.200;2023-04-19T00:23:10;167622.25;;;9.10;100.00
1776;BME280;885;42.626;23.200;2023-04-19T00:25:39;167596.09;;;9.00;100.00
1776;BME280;885;42.626;23.200;2023-04-19T00:28:05;167600.22;;;9.02;100.00
1776;BME280;885;42.626;23.200;2023-04-19T00:30:32;167574.06;;;8.92;100.00
1776;BME280;885;42.626;23.200;2023-04-19T00:32:59;167591.94;;;8.99;100.00
1776;BME280;885;42.626;23.200;2023-04-19T00:35:26;167609.84;;;9.05;100.00
1776;BME280;885;42.626;23.200;2023-04-19T00:37:52;167618.13;;;9.08;100.00
1776;BME280;885;42.626;23.200;2023-04-19T00:40:19;167597.44;;;9.01;100.00
1776;BME280;885;42.626;23.200;2023-04-19T00:42:47;167604.34;;;9.03;100.00
1776;BME280;885;42.626;23.200;2023-04-19T00:45:14;167619.53;;;9.09;100.00
1776;BME280;885;42.626;23.200;2023-04-19T00:47:40;167626.38;;;9.11;100.00
1776;BME280;885;42.626;23.200;2023-04-19T00:50:08;167634.66;;;9.14;100.00
1776;BME280;885;42.626;23.200;2023-04-19T00:52:35;167623.63;;;9.10;100.00
1776;BME280;885;42.626;23.200;2023-04-19T00:55:03;167630.53;;;9.13;100.00
1776;BME280;885;42.626;23.200;2023-04-19T00:57:31;167630.53;;;9.13;100.00
1776;BME280;885;42.626;23.200;2023-04-19T00:59:59;167631.88;;;9.13;100.00
1776;BME280;885;42.626;23.200;2023-04-19T01:02:26;167626.38;;;9.11;100.00
1776;BME280;885;42.626;23.200;2023-04-19T01:04:54;167607.13;;;9.04;100.00
1776;BME280;885;42.626;23.200;2023-04-19T01:07:20;167607.13;;;9.04;100.00
1776;BME280;885;42.626;23.200;2023-04-19T01:09:47;167607.13;;;9.04;100.00
1776;BME280;885;42.626;23.200;2023-04-19T01:12:14;167611.22;;;9.06;100.00
1776;BME280;885;42.626;23.200;2023-04-19T01:14:41;167597.44;;;9.01;100.00
1776;BME280;885;42.626;23.200;2023-04-19T01:17:10;167589.19;;;8.98;100.00
1776;BME280;885;42.626;23.200;2023-04-19T01:19:38;167596.09;;;9.00;100.00
1776;BME280;885;42.626;23.200;2023-04-19T01:22:05;167587.81;;;8.97;100.00
1776;BME280;885;42.626;23.200;2023-04-19T01:24:33;167596.09;;;9.00;100.00
1776;BME280;885;42.626;23.200;2023-04-19T01:27:00;167593.31;;;8.99;100.00
1776;BME280;885;42.626;23.200;2023-04-19T01:29:27;167604.34;;;9.03;100.00
1776;BME280;885;42.626;23.200;2023-04-19T01:31:54;167605.72;;;9.04;100.00
1776;BME280;885;42.626;23.200;2023-04-19T01:34:21;167615.34;;;9.07;100.00
1776;BME280;885;42.626;23.200;2023-04-19T01:36:48;167607.13;;;9.04;100.00
1776;BME280;885;42.626;23.200;2023-04-19T01:39:15;167609.84;;;9.05;100.00
1776;BME280;885;42.626;23.200;2023-04-19T01:41:43;167604.34;;;9.03;100.00
1776;BME280;885;42.626;23.200;2023-04-19T01:44:10;167611.22;;;9.06;100.00
1776;BME280;885;42.626;23.200;2023-04-19T01:46:37;167612.63;;;9.06;100.00
1776;BME280;885;42.626;23.200;2023-04-19T01:49:07;167626.38;;;9.11;100.00
1776;BME280;885;42.626;23.200;2023-04-19T01:51:33;167618.13;;;9.08;100.00
1776;BME280;885;42.626;23.200;2023-04-19T01:54:00;167618.13;;;9.08;100.00
1776;BME280;885;42.626;23.200;2023-04-19T01:56:27;167609.84;;;9.05;100.00
1776;BME280;885;42.626;23.200;2023-04-19T01:58:55;167587.81;;;8.97;100.00
1776;BME280;885;42.626;23.200;2023-04-19T02:01:22;167598.81;;;9.01;100.00
1776;BME280;885;42.626;23.200;2023-04-19T02:03:48;167591.94;;;8.99;100.00
1776;BME280;885;42.626;23.200;2023-04-19T02:06:15;167561.66;;;8.88;100.00
1776;BME280;885;42.626;23.200;2023-04-19T02:08:42;167561.66;;;8.88;100.00
1776;BME280;885;42.626;23.200;2023-04-19T02:11:09;167549.25;;;8.83;100.00
1776;BME280;885;42.626;23.200;2023-04-19T02:13:38;167529.97;;;8.76;100.00
1776;BME280;885;42.626;23.200;2023-04-19T02:16:07;167485.91;;;8.60;100.00
1776;BME280;885;42.626;23.200;2023-04-19T02:18:35;167494.13;;;8.63;100.00
1776;BME280;885;42.626;23.200;2023-04-19T02:21:04;167498.31;;;8.64;100.00
1776;BME280;885;42.626;23.200;2023-04-19T02:23:31;167474.88;;;8.56;100.00
1776;BME280;885;42.626;23.200;2023-04-19T02:25:58;167491.41;;;8.62;100.00
1776;BME280;885;42.626;23.200;2023-04-19T02:28:27;167507.94;;;8.68;100.00
1776;BME280;885;42.626;23.200;2023-04-19T02:30:53;167513.44;;;8.70;100.00
1776;BME280;885;42.626;23.200;2023-04-19T02:33:21;167527.22;;;8.75;100.00
1776;BME280;885;42.626;23.200;2023-04-19T02:35:49;167510.72;;;8.69;100.00
1776;BME280;885;42.626;23.200;2023-04-19T02:38:16;167487.28;;;8.60;100.00
1776;BME280;885;42.626;23.200;2023-04-19T02:40:43;167492.81;;;8.62;100.00
1776;BME280;885;42.626;23.200;2023-04-19T02:43:10;167472.09;;;8.55;100.00
1776;BME280;885;42.626;23.200;2023-04-19T02:45:36;167480.41;;;8.58;100.00
1776;BME280;885;42.626;23.200;2023-04-19T02:48:03;167498.31;;;8.64;100.00
1776;BME280;885;42.626;23.200;2023-04-19T02:50:32;167502.41;;;8.66;100.00
1776;BME280;885;42.626;23.200;2023-04-19T02:52:58;167505.19;;;8.67;100.00
1776;BME280;885;42.626;23.200;2023-04-19T02:55:25;167512.03;;;8.69;100.00
1776;BME280;885;42.626;23.200;2023-04-19T02:57:52;167510.72;;;8.69;100.00
1776;BME280;885;42.626;23.200;2023-04-19T03:00:19;167496.91;;;8.64;100.00
1776;BME280;885;42.626;23.200;2023-04-19T03:02:45;167463.88;;;8.52;100.00
1776;BME280;885;42.626;23.200;2023-04-19T03:05:12;167476.28;;;8.56;100.00
1776;BME280;885;42.626;23.200;2023-04-19T03:07:40;167450.09;;;8.47;100.00
1776;BME280;885;42.626;23.200;2023-04-19T03:10:08;167436.34;;;8.42;100.00
1776;BME280;885;42.626;23.200;2023-04-19T03:12:35;167389.47;;;8.25;100.00
1776;BME280;885;42.626;23.200;2023-04-19T03:15:01;167359.16;;;8.14;100.00
1776;BME280;885;42.626;23.200;2023-04-19T03:17:28;167353.66;;;8.12;100.00
1776;BME280;885;42.626;23.200;2023-04-19T03:19:55;167381.19;;;8.22;100.00
1776;BME280;885;42.626;23.200;2023-04-19T03:22:22;167411.53;;;8.33;100.00
1776;BME280;885;42.626;23.200;2023-04-19T03:24:50;167399.16;;;8.28;100.00
1776;BME280;885;42.626;23.200;2023-04-19T03:27:16;167434.97;;;8.41;100.00
1776;BME280;885;42.626;23.200;2023-04-19T03:29:43;167444.56;;;8.45;100.00
1776;BME280;885;42.626;23.200;2023-04-19T03:32:10;167426.66;;;8.38;100.00
1776;BME280;885;42.626;23.200;2023-04-19T03:34:37;167428.06;;;8.39;100.00
1776;BME280;885;42.626;23.200;2023-04-19T03:37:04;167429.44;;;8.39;100.00
1776;BME280;885;42.626;23.200;2023-04-19T03:39:30;167429.44;;;8.39;100.00
1776;BME280;885;42.626;23.200;2023-04-19T03:41:59;167422.56;;;8.37;100.00
1776;BME280;885;42.626;23.200;2023-04-19T03:44:25;167415.66;;;8.34;100.00
1776;BME280;885;42.626;23.200;2023-04-19T03:46:52;167429.44;;;8.39;100.00
1776;BME280;885;42.626;23.200;2023-04-19T03:49:19;167436.34;;;8.42;100.00
1776;BME280;885;42.626;23.200;2023-04-19T03:51:45;167432.19;;;8.40;100.00
1776;BME280;885;42.626;23.200;2023-04-19T03:54:12;167419.78;;;8.36;100.00
1776;BME280;885;42.626;23.200;2023-04-19T03:56:39;167426.66;;;8.38;100.00
1776;BME280;885;42.626;23.200;2023-04-19T03:59:08;167411.53;;;8.33;100.00
1776;BME280;885;42.626;23.200;2023-04-19T04:01:35;167428.06;;;8.39;100.00
1776;BME280;885;42.626;23.200;2023-04-19T04:04:06;167434.97;;;8.41;100.00
1776;BME280;885;42.626;23.200;2023-04-19T04:06:32;167432.19;;;8.40;100.00
1776;BME280;885;42.626;23.200;2023-04-19T04:08:59;167433.56;;;8.41;100.00
1776;BME280;885;42.626;23.200;2023-04-19T04:11:26;167454.19;;;8.48;100.00
1776;BME280;885;42.626;23.200;2023-04-19T04:13:54;167463.88;;;8.52;100.00
1776;BME280;885;42.626;23.200;2023-04-19T04:16:22;167477.63;;;8.57;100.00
1776;BME280;885;42.626;23.200;2023-04-19T04:18:49;167484.50;;;8.59;100.00
1776;BME280;885;42.626;23.200;2023-04-19T04:21:15;167501.03;;;8.65;100.00
1776;BME280;885;42.626;23.200;2023-04-19T04:23:42;167513.44;;;8.70;100.00
1776;BME280;885;42.626;23.200;2023-04-19T04:26:09;167507.94;;;8.68;100.00
1776;BME280;885;42.626;23.200;2023-04-19T04:28:38;167527.22;;;8.75;100.00
1776;BME280;885;42.626;23.200;2023-04-19T04:31:05;167531.34;;;8.76;100.00
1776;BME280;885;42.626;23.200;2023-04-19T04:33:33;167551.97;;;8.84;100.00
1776;BME280;885;42.626;23.200;2023-04-19T04:36:00;167557.50;;;8.86;100.00
1776;BME280;885;42.626;23.200;2023-04-19T04:38:27;167568.56;;;8.90;100.00
1776;BME280;885;42.626;23.200;2023-04-19T04:40:54;167594.72;;;9.00;100.00
1776;BME280;885;42.626;23.200;2023-04-19T04:43:22;167615.34;;;9.07;100.00
1776;BME280;885;42.626;23.200;2023-04-19T04:45:50;167576.78;;;8.93;100.00
1776;BME280;885;42.626;23.200;2023-04-19T04:48:19;167496.91;;;8.64;100.00
1776;BME280;885;42.626;23.200;2023-04-19T04:50:48;167506.53;;;8.67;100.00
1776;BME280;885;42.626;23.200;2023-04-19T04:53:14;167485.91;;;8.60;100.00
1776;BME280;885;42.626;23.200;2023-04-19T04:55:41;167470.78;;;8.54;100.00
1776;BME280;885;42.626;23.200;2023-04-19T04:58:08;167503.81;;;8.66;100.00
1776;BME280;885;42.626;23.200;2023-04-19T05:00:34;167529.97;;;8.76;100.00
1776;BME280;885;42.626;23.200;2023-04-19T05:03:01;167558.88;;;8.87;100.00
1776;BME280;885;42.626;23.200;2023-04-19T05:05:28;167551.97;;;8.84;100.00
1776;BME280;885;42.626;23.200;2023-04-19T05:07:56;167579.56;;;8.94;100.00
1776;BME280;885;42.626;23.200;2023-04-19T05:10:23;167598.81;;;9.01;100.00
1776;BME280;885;42.626;23.200;2023-04-19T05:12:50;167590.59;;;8.98;100.00
1776;BME280;885;42.626;23.200;2023-04-19T05:15:16;167619.53;;;9.09;100.00
1776;BME280;885;42.626;23.200;2023-04-19T05:17:43;167618.13;;;9.08;100.00
1776;BME280;885;42.626;23.200;2023-04-19T05:20:10;167609.84;;;9.05;100.00
1776;BME280;885;42.626;23.200;2023-04-19T05:22:37;167557.50;;;8.86;100.00
1776;BME280;885;42.626;23.200;2023-04-19T05:25:06;167567.16;;;8.90;100.00
1776;BME280;885;42.626;23.200;2023-04-19T05:27:34;167587.81;;;8.97;100.00
1776;BME280;885;42.626;23.200;2023-04-19T05:30:00;167620.84;;;9.09;100.00
1776;BME280;885;42.626;23.200;2023-04-19T05:32:28;167626.38;;;9.11;100.00
1776;BME280;885;42.626;23.200;2023-04-19T05:34:55;167636.06;;;9.15;100.00
1776;BME280;885;42.626;23.200;2023-04-19T05:37:21;167612.63;;;9.06;100.00
1776;BME280;885;42.626;23.200;2023-04-19T05:39:49;167627.75;;;9.12;100.00
1776;BME280;885;42.626;23.200;2023-04-19T05:42:17;167659.47;;;9.23;100.00
1776;BME280;885;42.626;23.200;2023-04-19T05:44:44;167674.63;;;9.29;100.00
1776;BME280;885;42.626;23.200;2023-04-19T05:47:11;167695.25;;;9.36;100.00
1776;BME280;885;42.626;23.200;2023-04-19T05:49:38;167698.03;;;9.37;100.00
1776;BME280;885;42.626;23.200;2023-04-19T05:52:04;167724.19;;;9.47;100.00
1776;BME280;885;42.626;23.200;2023-04-19T05:54:31;167735.22;;;9.51;100.00
1776;BME280;885;42.626;23.200;2023-04-19T05:57:00;167751.81;;;9.57;100.00
1776;BME280;885;42.626;23.200;2023-04-19T05:59:28;167783.47;;;9.69;100.00
1776;BME280;885;42.626;23.200;2023-04-19T06:01:56;167816.53;;;9.81;100.00
1776;BME280;885;42.626;23.200;2023-04-19T06:04:22;167822.06;;;9.83;100.00
1776;BME280;885;42.626;23.200;2023-04-19T06:06:49;167813.81;;;9.80;100.00
1776;BME280;885;42.626;23.200;2023-04-19T06:09:16;167802.78;;;9.76;100.00
1776;BME280;885;42.626;23.200;2023-04-19T06:11:43;167797.28;;;9.74;100.00
1776;BME280;885;42.626;23.200;2023-04-19T06:14:10;167773.84;;;9.65;100.00
1776;BME280;885;42.626;23.200;2023-04-19T06:16:39;167729.72;;;9.49;100.00
1776;BME280;885;42.626;23.200;2023-04-19T06:19:06;167733.88;;;9.50;100.00
1776;BME280;885;42.626;23.200;2023-04-19T06:21:33;167744.91;;;9.54;100.00
1776;BME280;885;42.626;23.200;2023-04-19T06:24:00;167753.13;;;9.57;100.00
1776;BME280;885;42.626;23.200;2023-04-19T06:26:27;167760.03;;;9.60;100.00
1776;BME280;885;42.626;23.200;2023-04-19T06:28:54;167709.06;;;9.41;100.00
1776;BME280;885;42.626;23.200;2023-04-19T06:31:20;167720.09;;;9.45;100.00
1776;BME280;885;42.626;23.200;2023-04-19T06:33:49;167733.88;;;9.50;100.00
1776;BME280;885;42.626;23.200;2023-04-19T06:36:16;167750.41;;;9.56;100.00
1776;BME280;885;42.626;23.200;2023-04-19T06:38:43;167720.09;;;9.45;100.00
1776;BME280;885;42.626;23.200;2023-04-19T06:41:10;167757.31;;;9.59;100.00
1776;BME280;885;42.626;23.200;2023-04-19T06:43:37;167758.66;;;9.59;100.00
1776;BME280;885;42.626;23.200;2023-04-19T06:46:05;167720.09;;;9.45;100.00
1776;BME280;885;42.626;23.200;2023-04-19T06:48:33;167732.50;;;9.50;100.00
1776;BME280;885;42.626;23.200;2023-04-19T06:51:01;167706.34;;;9.40;100.00
1776;BME280;885;42.626;23.200;2023-04-19T06:53:28;167749.03;;;9.56;100.00
1776;BME280;885;42.626;23.200;2023-04-19T06:55:57;167744.91;;;9.54;100.00
1776;BME280;885;42.626;23.200;2023-04-19T06:58:25;167742.13;;;9.53;100.00
1776;BME280;885;42.626;23.200;2023-04-19T07:00:52;167754.53;;;9.58;100.00
1776;BME280;885;42.626;23.200;2023-04-19T07:03:19;167786.25;;;9.70;100.00
1776;BME280;885;42.626;23.200;2023-04-19T07:05:45;167800.00;;;9.75;100.00
1776;BME280;885;42.626;23.200;2023-04-19T07:08:14;167747.63;;;9.55;100.00
1776;BME280;885;42.626;23.200;2023-04-19T07:10:41;167733.88;;;9.50;100.00
1776;BME280;885;42.626;23.200;2023-04-19T07:13:09;167773.84;;;9.65;100.00
1776;BME280;885;42.626;23.200;2023-04-19T07:15:36;167797.28;;;9.74;100.00
1776;BME280;885;42.626;23.200;2023-04-19T07:18:02;167786.25;;;9.70;100.00
1776;BME280;885;42.626;23.200;2023-04-19T07:20:29;167784.88;;;9.69;100.00
1776;BME280;885;42.626;23.200;2023-04-19T07:22:56;167797.28;;;9.74;100.00
1776;BME280;885;42.626;23.200;2023-04-19T07:25:24;167811.03;;;9.79;100.00
1776;BME280;885;42.626;23.200;2023-04-19T07:27:51;167798.63;;;9.74;100.00
1776;BME280;885;42.626;23.200;2023-04-19T07:30:18;167837.25;;;9.88;100.00
1776;BME280;885;42.626;23.200;2023-04-19T07:32:45;167860.69;;;9.97;100.00
1776;BME280;885;42.626;23.200;2023-04-19T07:35:12;167907.56;;;10.14;100.00
1776;BME280;885;42.626;23.200;2023-04-19T07:37:38;167953.13;;;10.30;100.00
1776;BME280;885;42.626;23.200;2023-04-19T07:40:06;167986.22;;;10.43;100.00
1776;BME280;885;42.626;23.200;2023-04-19T07:42:34;168012.41;;;10.52;100.00
1776;BME280;885;42.626;23.200;2023-04-19T07:45:01;168053.78;;;10.67;100.00
1776;BME280;885;42.626;23.200;2023-04-19T07:47:28;168074.44;;;10.75;100.00
1776;BME280;885;42.626;23.200;2023-04-19T07:49:55;168117.22;;;10.90;100.00
1776;BME280;885;42.626;23.200;2023-04-19T07:52:22;168139.31;;;10.98;99.66
1776;BME280;885;42.626;23.200;2023-04-19T07:54:49;168073.09;;;10.74;98.49
1776;BME280;885;42.626;23.200;2023-04-19T07:57:15;168035.84;;;10.61;100.00
1776;BME280;885;42.626;23.200;2023-04-19T07:59:43;167994.44;;;10.46;100.00
1776;BME280;885;42.626;23.200;2023-04-19T08:02:10;168049.66;;;10.66;100.00
1776;BME280;885;42.626;23.200;2023-04-19T08:04:37;168084.13;;;10.78;100.00
1776;BME280;885;42.626;23.200;2023-04-19T08:07:03;168140.69;;;10.99;100.00
1776;BME280;885;42.626;23.200;2023-04-19T08:09:32;168202.78;;;11.22;99.57
1776;BME280;885;42.626;23.200;2023-04-19T08:11:59;168241.41;;;11.36;97.08
1776;BME280;885;42.626;23.200;2023-04-19T08:14:25;168271.78;;;11.47;95.37
1776;BME280;885;42.626;23.200;2023-04-19T08:16:54;168271.78;;;11.47;94.98
1776;BME280;885;42.626;23.200;2023-04-19T08:19:20;168286.94;;;11.52;93.87
1776;BME280;885;42.626;23.200;2023-04-19T08:21:47;168321.44;;;11.65;92.78
1776;BME280;885;42.626;23.200;2023-04-19T08:24:14;168321.44;;;11.65;92.20
1776;BME280;885;42.626;23.200;2023-04-19T08:26:40;168302.16;;;11.58;91.26
1776;BME280;885;42.626;23.200;2023-04-19T08:29:07;168309.06;;;11.60;90.89
1776;BME280;885;42.626;23.200;2023-04-19T08:31:34;168332.53;;;11.69;92.59
1776;BME280;885;42.626;23.200;2023-04-19T08:34:03;168367.03;;;11.81;92.22
1776;BME280;885;42.626;23.200;2023-04-19T08:36:29;168260.72;;;11.43;92.94
1776;BME280;885;42.626;23.200;2023-04-19T08:38:56;168285.59;;;11.52;93.48
1776;BME280;885;42.626;23.200;2023-04-19T08:41:23;168371.22;;;11.83;93.83
1776;BME280;885;42.626;23.200;2023-04-19T08:43:53;168373.97;;;11.84;92.06
1776;BME280;885;42.626;23.200;2023-04-19T08:46:22;168365.72;;;11.81;92.54
1776;BME280;885;42.626;23.200;2023-04-19T08:48:51;168427.81;;;12.04;92.16
1776;BME280;885;42.626;23.200;2023-04-19T08:51:20;168487.22;;;12.25;91.91
1776;BME280;885;42.626;23.200;2023-04-19T08:53:47;168542.44;;;12.45;91.90
1776;BME280;885;42.626;23.200;2023-04-19T08:56:14;168603.19;;;12.67;89.55
1776;BME280;885;42.626;23.200;2023-04-19T08:58:41;168646.03;;;12.83;87.32
1776;BME280;885;42.626;23.200;2023-04-19T09:01:08;168668.13;;;12.91;85.97
1776;BME280;885;42.626;23.200;2023-04-19T09:03:42;168650.16;;;12.85;84.49
1776;BME280;885;42.626;23.200;2023-04-19T09:06:10;168719.31;;;13.10;85.25
1776;BME280;885;42.626;23.200;2023-04-19T09:08:39;168713.78;;;13.08;84.04
1776;BME280;885;42.626;23.200;2023-04-19T09:11:06;168811.91;;;13.43;86.21
1776;BME280;885;42.626;23.200;2023-04-19T09:13:33;168910.03;;;13.79;82.62
1776;BME280;885;42.626;23.200;2023-04-19T09:16:03;168962.59;;;13.98;82.60
1776;BME280;885;42.626;23.200;2023-04-19T09:18:30;169017.88;;;14.18;82.74
1776;BME280;885;42.626;23.200;2023-04-19T09:20:56;169040.00;;;14.26;80.73
1776;BME280;885;42.626;23.200;2023-04-19T09:23:25;169062.22;;;14.35;78.79
1776;BME280;885;42.626;23.200;2023-04-19T09:25:55;169064.97;;;14.36;79.76
1776;BME280;885;42.626;23.200;2023-04-19T09:28:24;169095.41;;;14.47;77.39
1776;BME280;885;42.626;23.200;2023-04-19T09:30:52;169103.69;;;14.50;75.50
1776;BME280;885;42.626;23.200;2023-04-19T09:33:33;169028.94;;;14.22;76.30
1776;BME280;885;42.626;23.200;2023-04-19T09:36:00;169037.25;;;14.25;77.32
1776;BME280;885;42.626;23.200;2023-04-19T09:38:27;169070.50;;;14.38;76.70
1776;BME280;885;42.626;23.200;2023-04-19T09:41:06;169142.44;;;14.64;77.87
1776;BME280;885;42.626;23.200;2023-04-19T09:43:33;169197.75;;;14.84;75.20
1776;BME280;885;42.626;23.200;2023-04-19T09:46:00;169336.16;;;15.34;76.69
1776;BME280;885;42.626;23.200;2023-04-19T09:48:27;169416.47;;;15.63;73.68
1776;BME280;885;42.626;23.200;2023-04-19T09:50:55;169517.56;;;16.00;73.25
1776;BME280;885;42.626;23.200;2023-04-19T09:53:23;169610.31;;;16.34;69.60
1776;BME280;885;42.626;23.200;2023-04-19T09:55:51;169663.00;;;16.53;68.47
1776;BME280;885;42.626;23.200;2023-04-19T09:58:20;169663.00;;;16.53;67.48
1776;BME280;885;42.626;23.200;2023-04-19T10:00:48;169737.81;;;16.80;67.54
1776;BME280;885;42.626;23.200;2023-04-19T10:03:17;169690.75;;;16.63;65.69
1776;BME280;885;42.626;23.200;2023-04-19T10:05:46;169694.72;;;16.65;64.33
1776;BME280;885;42.626;23.200;2023-04-19T10:08:14;169188.41;;;16.18;64.23
1776;BME280;885;42.626;23.200;2023-04-19T10:10:44;169163.53;;;16.09;66.41
1776;BME280;885;42.626;23.200;2023-04-19T10:13:16;169149.75;;;16.04;68.29
1776;BME280;885;42.626;23.200;2023-04-19T10:15:48;168837.22;;;16.26;65.50
1776;BME280;885;42.626;23.200;2023-04-19T10:18:15;168855.16;;;16.33;66.27
1776;BME280;885;42.626;23.200;2023-04-19T10:20:48;167968.63;;;15.82;66.58
1776;BME280;885;42.626;23.200;2023-04-19T10:23:18;168326.47;;;15.76;68.32
1776;BME280;885;42.626;23.200;2023-04-19T10:25:46;168297.59;;;15.66;70.44
1776;BME280;885;42.626;23.200;2023-04-19T10:28:14;167861.66;;;15.43;70.31
1776;BME280;885;42.626;23.200;2023-04-19T10:30:52;167846.47;;;15.38;69.18
1776;BME280;885;42.626;23.200;2023-04-19T10:33:24;167889.06;;;15.53;69.06
1776;BME280;885;42.626;23.200;2023-04-19T10:35:55;168016.66;;;16.00;66.23
1776;BME280;885;42.626;23.200;2023-04-19T10:38:35;167599.78;;;15.84;67.81
1776;BME280;885;42.626;23.200;2023-04-19T10:41:02;167599.78;;;15.84;68.48
1776;BME280;885;42.626;23.200;2023-04-19T10:43:30;166456.66;;;15.77;64.65
1776;BME280;885;42.626;23.200;2023-04-19T10:46:01;165993.00;;;15.44;67.44
1776;BME280;885;42.626;23.200;2023-04-19T10:48:33;165942.81;;;15.25;67.27
1776;BME280;885;42.626;23.200;2023-04-19T10:51:03;166345.16;;;15.36;68.77
1776;BME280;885;42.626;23.200;2023-04-19T10:53:50;165528.50;;;15.10;67.12
1776;BME280;885;42.626;23.200;2023-04-19T10:56:19;165543.38;;;15.16;67.67
1776;BME280;885;42.626;23.200;2023-04-19T10:59:11;165189.91;;;15.23;65.44
1776;BME280;885;42.626;23.200;2023-04-19T11:01:48;165486.59;;;14.94;70.13
1776;BME280;885;42.626;23.200;2023-04-19T11:04:16;165423.03;;;14.71;71.21
1776;BME280;885;42.626;23.200;2023-04-19T11:06:58;165477.13;;;14.91;69.32
1776;BME280;885;42.626;23.200;2023-04-19T11:09:27;165510.94;;;15.03;69.13
1776;BME280;885;42.626;23.200;2023-04-19T11:11:57;166411.81;;;15.60;69.86
1776;BME280;885;42.626;23.200;2023-04-19T11:14:24;166498.78;;;15.93;66.55
1776;BME280;885;42.626;23.200;2023-04-19T11:16:53;165850.44;;;16.30;61.85
1776;BME280;885;42.626;23.200;2023-04-19T11:19:19;165920.91;;;16.56;62.88
1776;BME280;885;42.626;23.200;2023-04-19T11:21:47;166379.59;;;16.87;61.39
1776;BME280;885;42.626;23.200;2023-04-19T11:24:14;165991.25;;;16.82;62.02
1776;BME280;885;42.626;23.200;2023-04-19T11:26:43;165599.00;;;16.76;61.75
1776;BME280;885;42.626;23.200;2023-04-19T11:29:10;164755.56;;;16.40;62.64
1776;BME280;885;42.626;23.200;2023-04-19T11:31:37;163978.78;;;16.30;61.20
1776;BME280;885;42.626;23.200;2023-04-19T11:34:05;164021.59;;;16.46;61.87
1776;BME280;885;42.626;23.200;2023-04-19T11:36:32;163703.38;;;16.67;59.34
1776;BME280;885;42.626;23.200;2023-04-19T11:39:01;163800.78;;;17.04;59.20
1776;BME280;885;42.626;23.200;2023-04-19T11:41:36;163419.44;;;17.01;58.83
1776;BME280;885;42.626;23.200;2023-04-19T11:44:12;162946.53;;;16.64;60.45
1776;BME280;885;42.626;23.200;2023-04-19T11:46:38;160915.00;;;16.03;61.15
1776;BME280;885;42.626;23.200;2023-04-19T11:49:07;160831.09;;;15.70;64.65
1776;BME280;885;42.626;23.200;2023-04-19T11:51:33;161121.84;;;15.39;67.28
1776;BME280;885;42.626;23.200;2023-04-19T11:54:00;160318.78;;;15.17;66.14
1776;BME280;885;42.626;23.200;2023-04-19T11:56:27;159911.63;;;15.04;64.53
1776;BME280;885;42.626;23.200;2023-04-19T11:58:56;159927.31;;;15.10;65.44
1776;BME280;885;42.626;23.200;2023-04-19T12:01:23;161515.09;;;15.46;68.11
1776;BME280;885;42.626;23.200;2023-04-19T12:03:52;162027.34;;;15.99;64.21
1776;BME280;885;42.626;23.200;2023-04-19T12:06:23;162557.63;;;16.58;62.15
1776;BME280;885;42.626;23.200;2023-04-19T12:08:52;161782.66;;;16.48;60.52
1776;BME280;885;42.626;23.200;2023-04-19T12:11:21;160256.25;;;16.37;58.30
1776;BME280;885;42.626;23.200;2023-04-19T12:14:06;159474.59;;;16.24;58.49
1776;BME280;885;42.626;23.200;2023-04-19T12:16:33;158739.97;;;16.29;56.12
1776;BME280;885;42.626;23.200;2023-04-19T12:19:09;159230.47;;;16.74;56.05
1776;BME280;885;42.626;23.200;2023-04-19T12:21:40;158229.38;;;17.21;53.21
1776;BME280;885;42.626;23.200;2023-04-19T12:24:07;159003.91;;;17.31;56.60
1776;BME280;885;42.626;23.200;2023-04-19T12:26:34;158172.72;;;16.99;57.84
1776;BME280;885;42.626;23.200;2023-04-19T12:29:02;155788.88;;;16.44;56.08
1776;BME280;885;42.626;23.200;2023-04-19T12:31:29;155714.09;;;16.14;59.64
1776;BME280;885;42.626;23.200;2023-04-19T12:33:57;155649.44;;;15.88;61.72
1776;BME280;885;42.626;23.200;2023-04-19T12:36:24;155194.03;;;15.56;62.42
1776;BME280;885;42.626;23.200;2023-04-19T12:38:53;153924.59;;;14.95;65.17
1776;BME280;885;42.626;23.200;2023-04-19T12:41:20;154290.88;;;14.93;66.46
1776;BME280;885;42.626;23.200;2023-04-19T12:43:47;153898.28;;;14.85;64.81
1776;BME280;885;42.626;23.200;2023-04-19T12:46:13;153888.19;;;14.81;64.55
1776;BME280;885;42.626;23.200;2023-04-19T12:48:40;154249.38;;;14.76;66.50
1776;BME280;885;42.626;23.200;2023-04-19T12:51:07;155076.47;;;15.09;64.73
1776;BME280;885;42.626;23.200;2023-04-19T12:53:34;154341.13;;;15.13;62.23
1776;BME280;885;42.626;23.200;2023-04-19T12:56:02;154741.56;;;15.24;63.18
1776;BME280;885;42.626;23.200;2023-04-19T12:58:29;154363.78;;;15.22;63.75
1776;BME280;885;42.626;23.200;2023-04-19T13:00:56;153518.28;;;14.82;64.05
1776;BME280;885;42.626;23.200;2023-04-19T13:03:23;153893.25;;;14.83;66.99
1776;BME280;885;42.626;23.200;2023-04-19T13:05:49;153548.31;;;14.94;63.51
1776;BME280;885;42.626;23.200;2023-04-19T13:08:16;154300.91;;;14.97;65.48
1776;BME280;885;42.626;23.200;2023-04-19T13:10:46;154678.56;;;14.99;65.96
1776;BME280;885;42.626;23.200;2023-04-19T13:13:14;155507.47;;;15.32;64.73